sensor_id;sensor_type;location;lat;lon;timestamp;P1;durP1;ratioP1;P2;durP2;ratioP2
47309;SDS011;33046;52.270;6.832;2022-12-31T00:01:19;8.30;;;5.03;;
47309;SDS011;33046;52.270;6.832;2022-12-31T00:03:27;12.35;;;7.22;;
47309;SDS011;33046;52.270;6.832;2022-12-31T00:05:35;10.00;;;6.10;;
47309;SDS011;33046;52.270;6.832;2022-12-31T00:07:42;9.15;;;4.45;;
47309;SDS011;33046;52.270;6.832;2022-12-31T00:09:48;5.68;;;4.63;;
47309;SDS011;33046;52.270;6.832;2022-12-31T00:11:57;7.28;;;4.53;;
47309;SDS011;33046;52.270;6.832;2022-12-31T00:14:04;3.90;;;3.20;;
47309;SDS011;33046;52.270;6.832;2022-12-31T00:16:13;5.38;;;2.58;;
47309;SDS011;33046;52.270;6.832;2022-12-31T00:18:21;4.20;;;2.55;;
47309;SDS011;33046;52.270;6.832;2022-12-31T00:20:27;6.05;;;3.50;;
47309;SDS011;33046;52.270;6.832;2022-12-31T00:22:34;3.78;;;2.65;;
47309;SDS011;33046;52.270;6.832;2022-12-31T00:24:41;4.93;;;3.13;;
47309;SDS011;33046;52.270;6.832;2022-12-31T00:26:48;5.07;;;2.95;;
47309;SDS011;33046;52.270;6.832;2022-12-31T00:28:56;3.47;;;3.17;;
47309;SDS011;33046;52.270;6.832;2022-12-31T00:31:05;3.60;;;3.05;;
47309;SDS011;33046;52.270;6.832;2022-12-31T00:33:13;3.65;;;3.28;;
47309;SDS011;33046;52.270;6.832;2022-12-31T00:35:19;3.63;;;3.33;;
47309;SDS011;33046;52.270;6.832;2022-12-31T00:37:26;2.65;;;2.45;;
47309;SDS011;33046;52.270;6.832;2022-12-31T00:39:33;3.15;;;2.85;;
47309;SDS011;33046;52.270;6.832;2022-12-31T00:41:40;3.60;;;2.80;;
47309;SDS011;33046;52.270;6.832;2022-12-31T00:43:47;2.70;;;2.40;;
47309;SDS011;33046;52.270;6.832;2022-12-31T00:45:55;3.63;;;3.33;;
47309;SDS011;33046;52.270;6.832;2022-12-31T00:48:02;2.78;;;2.45;;
47309;SDS011;33046;52.270;6.832;2022-12-31T00:50:09;3.63;;;1.88;;
47309;SDS011;33046;52.270;6.832;2022-12-31T00:52:16;2.22;;;1.90;;
47309;SDS011;33046;52.270;6.832;2022-12-31T00:54:23;3.28;;;1.98;;
47309;SDS011;33046;52.270;6.832;2022-12-31T00:56:30;2.22;;;1.50;;
47309;SDS011;33046;52.270;6.832;2022-12-31T00:58:37;2.08;;;1.65;;
47309;SDS011;33046;52.270;6.832;2022-12-31T01:00:44;1.75;;;1.20;;
47309;SDS011;33046;52.270;6.832;2022-12-31T01:02:53;1.52;;;1.42;;
47309;SDS011;33046;52.270;6.832;2022-12-31T01:04:59;1.83;;;1.02;;
47309;SDS011;33046;52.270;6.832;2022-12-31T01:07:06;1.25;;;1.05;;
47309;SDS011;33046;52.270;6.832;2022-12-31T01:09:14;2.63;;;0.90;;
47309;SDS011;33046;52.270;6.832;2022-12-31T01:11:21;3.50;;;0.80;;
47309;SDS011;33046;52.270;6.832;2022-12-31T01:13:29;2.13;;;0.80;;
47309;SDS011;33046;52.270;6.832;2022-12-31T01:15:36;1.42;;;0.50;;
47309;SDS011;33046;52.270;6.832;2022-12-31T01:17:44;0.77;;;0.70;;
47309;SDS011;33046;52.270;6.832;2022-12-31T01:19:52;1.77;;;0.50;;
47309;SDS011;33046;52.270;6.832;2022-12-31T01:21:59;1.23;;;0.50;;
47309;SDS011;33046;52.270;6.832;2022-12-31T01:24:06;0.85;;;0.50;;
47309;SDS011;33046;52.270;6.832;2022-12-31T01:26:13;0.47;;;0.45;;
47309;SDS011;33046;52.270;6.832;2022-12-31T01:28:22;0.90;;;0.43;;
47309;SDS011;33046;52.270;6.832;2022-12-31T01:30:28;0.52;;;0.32;;
47309;SDS011;33046;52.270;6.832;2022-12-31T01:32:35;0.60;;;0.50;;
47309;SDS011;33046;52.270;6.832;2022-12-31T01:34:43;2.55;;;0.50;;
47309;SDS011;33046;52.270;6.832;2022-12-31T01:36:51;2.42;;;0.30;;
47309;SDS011;33046;52.270;6.832;2022-12-31T01:38:58;2.05;;;0.82;;
47309;SDS011;33046;52.270;6.832;2022-12-31T01:41:06;2.55;;;0.38;;
47309;SDS011;33046;52.270;6.832;2022-12-31T01:43:16;0.75;;;0.30;;
47309;SDS011;33046;52.270;6.832;2022-12-31T01:45:24;1.85;;;0.52;;
47309;SDS011;33046;52.270;6.832;2022-12-31T01:47:33;0.50;;;0.25;;
47309;SDS011;33046;52.270;6.832;2022-12-31T01:49:43;1.05;;;0.40;;
47309;SDS011;33046;52.270;6.832;2022-12-31T01:51:56;0.65;;;0.40;;
47309;SDS011;33046;52.270;6.832;2022-12-31T01:54:07;0.30;;;0.28;;
47309;SDS011;33046;52.270;6.832;2022-12-31T01:56:18;0.50;;;0.30;;
47309;SDS011;33046;52.270;6.832;2022-12-31T01:58:28;0.30;;;0.30;;
47309;SDS011;33046;52.270;6.832;2022-12-31T02:00:40;0.47;;;0.30;;
47309;SDS011;33046;52.270;6.832;2022-12-31T02:02:48;0.30;;;0.30;;
47309;SDS011;33046;52.270;6.832;2022-12-31T02:04:56;0.98;;;0.30;;
47309;SDS011;33046;52.270;6.832;2022-12-31T02:07:06;0.57;;;0.30;;
47309;SDS011;33046;52.270;6.832;2022-12-31T02:09:14;0.63;;;0.30;;
47309;SDS011;33046;52.270;6.832;2022-12-31T02:11:22;1.00;;;0.40;;
47309;SDS011;33046;52.270;6.832;2022-12-31T02:13:31;0.82;;;0.40;;
47309;SDS011;33046;52.270;6.832;2022-12-31T02:15:40;0.63;;;0.32;;
47309;SDS011;33046;52.270;6.832;2022-12-31T02:17:55;0.25;;;0.25;;
47309;SDS011;33046;52.270;6.832;2022-12-31T02:20:19;0.88;;;0.32;;
47309;SDS011;33046;52.270;6.832;2022-12-31T02:22:55;1.17;;;0.40;;
47309;SDS011;33046;52.270;6.832;2022-12-31T02:25:28;0.32;;;0.30;;
47309;SDS011;33046;52.270;6.832;2022-12-31T02:27:50;1.10;;;0.43;;
47309;SDS011;33046;52.270;6.832;2022-12-31T02:30:07;1.00;;;0.20;;
47309;SDS011;33046;52.270;6.832;2022-12-31T02:32:16;0.35;;;0.30;;
47309;SDS011;33046;52.270;6.832;2022-12-31T02:34:28;0.63;;;0.30;;
47309;SDS011;33046;52.270;6.832;2022-12-31T02:36:40;0.40;;;0.30;;
47309;SDS011;33046;52.270;6.832;2022-12-31T02:38:50;0.40;;;0.40;;
47309;SDS011;33046;52.270;6.832;2022-12-31T02:40:57;1.52;;;0.30;;
47309;SDS011;33046;52.270;6.832;2022-12-31T02:43:05;0.30;;;0.30;;
47309;SDS011;33046;52.270;6.832;2022-12-31T02:45:14;0.30;;;0.30;;
47309;SDS011;33046;52.270;6.832;2022-12-31T02:47:27;3.05;;;0.30;;
47309;SDS011;33046;52.270;6.832;2022-12-31T02:49:42;0.35;;;0.32;;
47309;SDS011;33046;52.270;6.832;2022-12-31T02:51:58;0.25;;;0.20;;
47309;SDS011;33046;52.270;6.832;2022-12-31T02:54:18;0.73;;;0.30;;
47309;SDS011;33046;52.270;6.832;2022-12-31T02:56:35;0.75;;;0.30;;
47309;SDS011;33046;52.270;6.832;2022-12-31T03:00:58;0.75;;;0.28;;
47309;SDS011;33046;52.270;6.832;2022-12-31T03:03:05;0.50;;;0.38;;
47309;SDS011;33046;52.270;6.832;2022-12-31T03:05:14;1.15;;;0.40;;
47309;SDS011;33046;52.270;6.832;2022-12-31T03:07:24;1.80;;;0.50;;
47309;SDS011;33046;52.270;6.832;2022-12-31T03:09:32;1.63;;;0.40;;
47309;SDS011;33046;52.270;6.832;2022-12-31T03:11:39;0.60;;;0.40;;
47309;SDS011;33046;52.270;6.832;2022-12-31T03:13:46;0.50;;;0.40;;
47309;SDS011;33046;52.270;6.832;2022-12-31T03:15:53;1.15;;;0.60;;
47309;SDS011;33046;52.270;6.832;2022-12-31T03:18:02;1.35;;;0.43;;
47309;SDS011;33046;52.270;6.832;2022-12-31T03:20:10;0.73;;;0.40;;
47309;SDS011;33046;52.270;6.832;2022-12-31T03:22:17;0.60;;;0.50;;
47309;SDS011;33046;52.270;6.832;2022-12-31T03:24:24;2.55;;;0.70;;
47309;SDS011;33046;52.270;6.832;2022-12-31T03:26:31;2.20;;;0.98;;
47309;SDS011;33046;52.270;6.832;2022-12-31T03:28:38;1.33;;;0.60;;
47309;SDS011;33046;52.270;6.832;2022-12-31T03:30:47;1.52;;;0.63;;
47309;SDS011;33046;52.270;6.832;2022-12-31T03:32:56;2.38;;;0.85;;
47309;SDS011;33046;52.270;6.832;2022-12-31T03:35:05;2.60;;;1.15;;
47309;SDS011;33046;52.270;6.832;2022-12-31T03:37:13;1.05;;;0.68;;
47309;SDS011;33046;52.270;6.832;2022-12-31T03:39:20;3.15;;;0.70;;
47309;SDS011;33046;52.270;6.832;2022-12-31T03:41:27;1.33;;;0.82;;
47309;SDS011;33046;52.270;6.832;2022-12-31T03:43:33;1.13;;;0.65;;
47309;SDS011;33046;52.270;6.832;2022-12-31T03:45:40;0.88;;;0.70;;
47309;SDS011;33046;52.270;6.832;2022-12-31T03:47:47;1.38;;;0.63;;
47309;SDS011;33046;52.270;6.832;2022-12-31T03:49:54;2.55;;;0.60;;
47309;SDS011;33046;52.270;6.832;2022-12-31T03:52:02;1.10;;;0.70;;
47309;SDS011;33046;52.270;6.832;2022-12-31T03:54:09;1.10;;;0.70;;
47309;SDS011;33046;52.270;6.832;2022-12-31T03:56:16;0.90;;;0.73;;
47309;SDS011;33046;52.270;6.832;2022-12-31T03:58:23;0.90;;;0.68;;
47309;SDS011;33046;52.270;6.832;2022-12-31T04:00:30;1.08;;;0.95;;
47309;SDS011;33046;52.270;6.832;2022-12-31T04:02:37;4.45;;;1.88;;
47309;SDS011;33046;52.270;6.832;2022-12-31T04:04:44;0.93;;;0.80;;
47309;SDS011;33046;52.270;6.832;2022-12-31T04:06:51;1.77;;;1.10;;
47309;SDS011;33046;52.270;6.832;2022-12-31T04:08:59;1.35;;;0.98;;
47309;SDS011;33046;52.270;6.832;2022-12-31T04:11:05;2.40;;;1.65;;
47309;SDS011;33046;52.270;6.832;2022-12-31T04:13:12;2.80;;;1.40;;
47309;SDS011;33046;52.270;6.832;2022-12-31T04:15:19;2.55;;;1.80;;
47309;SDS011;33046;52.270;6.832;2022-12-31T04:17:26;1.80;;;1.40;;
47309;SDS011;33046;52.270;6.832;2022-12-31T04:19:33;2.63;;;1.23;;
47309;SDS011;33046;52.270;6.832;2022-12-31T04:21:40;2.38;;;1.40;;
47309;SDS011;33046;52.270;6.832;2022-12-31T04:23:47;2.72;;;1.83;;
47309;SDS011;33046;52.270;6.832;2022-12-31T04:25:55;2.20;;;1.45;;
47309;SDS011;33046;52.270;6.832;2022-12-31T04:28:02;2.38;;;1.50;;
47309;SDS011;33046;52.270;6.832;2022-12-31T04:30:09;3.83;;;1.50;;
47309;SDS011;33046;52.270;6.832;2022-12-31T04:32:17;2.55;;;1.67;;
47309;SDS011;33046;52.270;6.832;2022-12-31T04:34:24;2.28;;;1.70;;
47309;SDS011;33046;52.270;6.832;2022-12-31T04:36:31;2.72;;;1.90;;
47309;SDS011;33046;52.270;6.832;2022-12-31T04:38:38;2.53;;;1.60;;
47309;SDS011;33046;52.270;6.832;2022-12-31T04:40:44;1.73;;;1.52;;
47309;SDS011;33046;52.270;6.832;2022-12-31T04:42:52;2.20;;;1.52;;
47309;SDS011;33046;52.270;6.832;2022-12-31T04:44:59;2.70;;;2.08;;
47309;SDS011;33046;52.270;6.832;2022-12-31T04:47:06;2.65;;;1.77;;
47309;SDS011;33046;52.270;6.832;2022-12-31T04:49:13;2.40;;;1.77;;
47309;SDS011;33046;52.270;6.832;2022-12-31T04:51:20;3.50;;;2.47;;
47309;SDS011;33046;52.270;6.832;2022-12-31T04:53:27;3.05;;;1.60;;
47309;SDS011;33046;52.270;6.832;2022-12-31T04:55:34;3.78;;;2.28;;
47309;SDS011;33046;52.270;6.832;2022-12-31T04:57:41;3.55;;;1.85;;
47309;SDS011;33046;52.270;6.832;2022-12-31T04:59:49;5.20;;;1.75;;
47309;SDS011;33046;52.270;6.832;2022-12-31T05:01:56;2.58;;;1.75;;
47309;SDS011;33046;52.270;6.832;2022-12-31T05:04:04;3.25;;;1.67;;
47309;SDS011;33046;52.270;6.832;2022-12-31T05:06:11;1.65;;;1.10;;
47309;SDS011;33046;52.270;6.832;2022-12-31T05:08:19;1.88;;;1.45;;
47309;SDS011;33046;52.270;6.832;2022-12-31T05:10:26;2.42;;;1.15;;
47309;SDS011;33046;52.270;6.832;2022-12-31T05:12:33;2.83;;;0.98;;
47309;SDS011;33046;52.270;6.832;2022-12-31T05:14:40;4.05;;;1.35;;
47309;SDS011;33046;52.270;6.832;2022-12-31T05:16:48;2.33;;;1.30;;
47309;SDS011;33046;52.270;6.832;2022-12-31T05:18:55;1.63;;;1.15;;
47309;SDS011;33046;52.270;6.832;2022-12-31T05:21:02;3.38;;;1.90;;
47309;SDS011;33046;52.270;6.832;2022-12-31T05:23:09;4.25;;;3.85;;
47309;SDS011;33046;52.270;6.832;2022-12-31T05:25:16;4.13;;;3.30;;
47309;SDS011;33046;52.270;6.832;2022-12-31T05:27:23;4.45;;;4.03;;
47309;SDS011;33046;52.270;6.832;2022-12-31T05:29:30;3.58;;;3.28;;
47309;SDS011;33046;52.270;6.832;2022-12-31T05:31:37;2.45;;;2.05;;
47309;SDS011;33046;52.270;6.832;2022-12-31T05:33:45;2.80;;;2.08;;
47309;SDS011;33046;52.270;6.832;2022-12-31T05:35:52;1.95;;;1.55;;
47309;SDS011;33046;52.270;6.832;2022-12-31T05:38:00;2.13;;;1.45;;
47309;SDS011;33046;52.270;6.832;2022-12-31T05:40:07;1.80;;;1.52;;
47309;SDS011;33046;52.270;6.832;2022-12-31T05:42:15;1.30;;;1.20;;
47309;SDS011;33046;52.270;6.832;2022-12-31T05:44:22;1.70;;;1.55;;
47309;SDS011;33046;52.270;6.832;2022-12-31T05:46:29;1.90;;;1.48;;
47309;SDS011;33046;52.270;6.832;2022-12-31T05:48:35;2.33;;;1.80;;
47309;SDS011;33046;52.270;6.832;2022-12-31T05:50:43;3.05;;;1.60;;
47309;SDS011;33046;52.270;6.832;2022-12-31T05:52:50;1.80;;;1.70;;
47309;SDS011;33046;52.270;6.832;2022-12-31T05:54:57;2.65;;;2.22;;
47309;SDS011;33046;52.270;6.832;2022-12-31T05:57:04;1.50;;;1.40;;
47309;SDS011;33046;52.270;6.832;2022-12-31T05:59:11;1.75;;;1.55;;
47309;SDS011;33046;52.270;6.832;2022-12-31T06:01:17;1.60;;;1.40;;
47309;SDS011;33046;52.270;6.832;2022-12-31T06:03:24;2.05;;;1.77;;
47309;SDS011;33046;52.270;6.832;2022-12-31T06:05:31;1.60;;;1.10;;
47309;SDS011;33046;52.270;6.832;2022-12-31T06:07:39;1.48;;;1.10;;
47309;SDS011;33046;52.270;6.832;2022-12-31T06:09:46;1.52;;;1.08;;
47309;SDS011;33046;52.270;6.832;2022-12-31T06:11:53;1.42;;;1.10;;
47309;SDS011;33046;52.270;6.832;2022-12-31T06:14:00;1.25;;;1.02;;
47309;SDS011;33046;52.270;6.832;2022-12-31T06:16:08;1.58;;;1.20;;
47309;SDS011;33046;52.270;6.832;2022-12-31T06:18:15;1.52;;;0.90;;
47309;SDS011;33046;52.270;6.832;2022-12-31T06:20:22;1.20;;;1.00;;
47309;SDS011;33046;52.270;6.832;2022-12-31T06:22:29;1.23;;;0.77;;
47309;SDS011;33046;52.270;6.832;2022-12-31T06:24:37;1.02;;;0.90;;
47309;SDS011;33046;52.270;6.832;2022-12-31T06:26:44;0.88;;;0.80;;
47309;SDS011;33046;52.270;6.832;2022-12-31T06:28:51;1.40;;;1.00;;
47309;SDS011;33046;52.270;6.832;2022-12-31T06:30:58;0.98;;;0.75;;
47309;SDS011;33046;52.270;6.832;2022-12-31T06:33:05;0.98;;;0.80;;
47309;SDS011;33046;52.270;6.832;2022-12-31T06:35:12;1.10;;;0.95;;
47309;SDS011;33046;52.270;6.832;2022-12-31T06:37:19;2.28;;;1.20;;
47309;SDS011;33046;52.270;6.832;2022-12-31T06:39:25;1.30;;;1.10;;
47309;SDS011;33046;52.270;6.832;2022-12-31T06:41:34;1.38;;;0.98;;
47309;SDS011;33046;52.270;6.832;2022-12-31T06:43:41;1.02;;;0.80;;
47309;SDS011;33046;52.270;6.832;2022-12-31T06:45:48;1.33;;;1.23;;
47309;SDS011;33046;52.270;6.832;2022-12-31T06:47:55;1.88;;;1.10;;
47309;SDS011;33046;52.270;6.832;2022-12-31T06:50:01;1.38;;;1.10;;
47309;SDS011;33046;52.270;6.832;2022-12-31T06:52:09;1.10;;;0.90;;
47309;SDS011;33046;52.270;6.832;2022-12-31T06:54:15;1.00;;;0.80;;
47309;SDS011;33046;52.270;6.832;2022-12-31T06:56:23;0.70;;;0.70;;
47309;SDS011;33046;52.270;6.832;2022-12-31T06:58:37;0.60;;;0.57;;
47309;SDS011;33046;52.270;6.832;2022-12-31T07:00:47;0.60;;;0.60;;
47309;SDS011;33046;52.270;6.832;2022-12-31T07:03:08;0.70;;;0.60;;
47309;SDS011;33046;52.270;6.832;2022-12-31T07:05:26;0.60;;;0.52;;
47309;SDS011;33046;52.270;6.832;2022-12-31T07:07:40;0.50;;;0.50;;
47309;SDS011;33046;52.270;6.832;2022-12-31T07:09:56;0.40;;;0.40;;
47309;SDS011;33046;52.270;6.832;2022-12-31T07:12:09;0.60;;;0.50;;
47309;SDS011;33046;52.270;6.832;2022-12-31T07:14:26;0.50;;;0.40;;
47309;SDS011;33046;52.270;6.832;2022-12-31T07:16:47;16.15;;;1.90;;
47309;SDS011;33046;52.270;6.832;2022-12-31T07:19:04;0.40;;;0.40;;
47309;SDS011;33046;52.270;6.832;2022-12-31T07:21:24;0.47;;;0.40;;
47309;SDS011;33046;52.270;6.832;2022-12-31T07:23:37;0.63;;;0.55;;
47309;SDS011;33046;52.270;6.832;2022-12-31T07:25:46;0.60;;;0.40;;
47309;SDS011;33046;52.270;6.832;2022-12-31T07:28:03;0.30;;;0.30;;
47309;SDS011;33046;52.270;6.832;2022-12-31T07:30:20;0.40;;;0.40;;
47309;SDS011;33046;52.270;6.832;2022-12-31T07:32:37;0.50;;;0.50;;
47309;SDS011;33046;52.270;6.832;2022-12-31T07:34:59;1.63;;;1.52;;
47309;SDS011;33046;52.270;6.832;2022-12-31T07:37:15;0.65;;;0.65;;
47309;SDS011;33046;52.270;6.832;2022-12-31T07:39:27;1.20;;;0.83;;
47309;SDS011;33046;52.270;6.832;2022-12-31T07:41:48;0.98;;;0.60;;
47309;SDS011;33046;52.270;6.832;2022-12-31T07:44:01;1.15;;;1.00;;
47309;SDS011;33046;52.270;6.832;2022-12-31T07:46:15;1.70;;;1.40;;
47309;SDS011;33046;52.270;6.832;2022-12-31T07:48:27;1.98;;;1.60;;
47309;SDS011;33046;52.270;6.832;2022-12-31T07:50:34;1.50;;;1.35;;
47309;SDS011;33046;52.270;6.832;2022-12-31T07:52:42;1.33;;;0.85;;
47309;SDS011;33046;52.270;6.832;2022-12-31T07:54:50;1.42;;;0.82;;
47309;SDS011;33046;52.270;6.832;2022-12-31T07:56:56;2.78;;;1.40;;
47309;SDS011;33046;52.270;6.832;2022-12-31T07:59:06;1.20;;;0.80;;
47309;SDS011;33046;52.270;6.832;2022-12-31T08:01:26;2.08;;;1.13;;
47309;SDS011;33046;52.270;6.832;2022-12-31T08:03:41;1.20;;;1.10;;
47309;SDS011;33046;52.270;6.832;2022-12-31T08:05:59;0.75;;;0.30;;
47309;SDS011;33046;52.270;6.832;2022-12-31T08:08:20;2.72;;;0.30;;
47309;SDS011;33046;52.270;6.832;2022-12-31T08:10:34;0.20;;;0.20;;
47309;SDS011;33046;52.270;6.832;2022-12-31T08:12:44;1.20;;;0.28;;
47309;SDS011;33046;52.270;6.832;2022-12-31T08:14:54;0.40;;;0.30;;
47309;SDS011;33046;52.270;6.832;2022-12-31T08:17:02;1.73;;;0.20;;
47309;SDS011;33046;52.270;6.832;2022-12-31T08:19:21;1.52;;;0.25;;
47309;SDS011;33046;52.270;6.832;2022-12-31T08:21:33;2.00;;;0.10;;
47309;SDS011;33046;52.270;6.832;2022-12-31T08:23:47;0.50;;;0.20;;
47309;SDS011;33046;52.270;6.832;2022-12-31T08:26:17;0.95;;;0.40;;
47309;SDS011;33046;52.270;6.832;2022-12-31T08:31:13;0.75;;;0.30;;
47309;SDS011;33046;52.270;6.832;2022-12-31T08:33:24;0.95;;;0.30;;
47309;SDS011;33046;52.270;6.832;2022-12-31T08:35:40;1.80;;;0.50;;
47309;SDS011;33046;52.270;6.832;2022-12-31T08:37:58;0.82;;;0.60;;
47309;SDS011;33046;52.270;6.832;2022-12-31T08:40:15;1.25;;;0.80;;
47309;SDS011;33046;52.270;6.832;2022-12-31T08:42:29;1.35;;;1.02;;
47309;SDS011;33046;52.270;6.832;2022-12-31T08:44:42;6.22;;;1.95;;
47309;SDS011;33046;52.270;6.832;2022-12-31T08:46:58;2.13;;;1.50;;
47309;SDS011;33046;52.270;6.832;2022-12-31T08:49:19;3.00;;;1.73;;
47309;SDS011;33046;52.270;6.832;2022-12-31T08:51:26;2.05;;;0.93;;
47309;SDS011;33046;52.270;6.832;2022-12-31T08:53:34;2.78;;;1.55;;
47309;SDS011;33046;52.270;6.832;2022-12-31T08:55:41;1.88;;;1.20;;
47309;SDS011;33046;52.270;6.832;2022-12-31T08:57:52;2.03;;;1.00;;
47309;SDS011;33046;52.270;6.832;2022-12-31T09:00:10;1.42;;;1.00;;
47309;SDS011;33046;52.270;6.832;2022-12-31T09:02:26;1.70;;;0.75;;
47309;SDS011;33046;52.270;6.832;2022-12-31T09:05:04;3.55;;;2.55;;
47309;SDS011;33046;52.270;6.832;2022-12-31T09:07:21;2.35;;;1.20;;
47309;SDS011;33046;52.270;6.832;2022-12-31T09:09:35;3.58;;;0.90;;
47309;SDS011;33046;52.270;6.832;2022-12-31T09:11:51;2.60;;;1.42;;
47309;SDS011;33046;52.270;6.832;2022-12-31T09:14:06;1.17;;;0.80;;
47309;SDS011;33046;52.270;6.832;2022-12-31T09:16:27;1.60;;;0.70;;
47309;SDS011;33046;52.270;6.832;2022-12-31T09:18:40;3.55;;;1.23;;
47309;SDS011;33046;52.270;6.832;2022-12-31T09:20:49;5.18;;;4.68;;
47309;SDS011;33046;52.270;6.832;2022-12-31T09:22:57;3.03;;;2.20;;
47309;SDS011;33046;52.270;6.832;2022-12-31T09:25:04;5.13;;;4.25;;
47309;SDS011;33046;52.270;6.832;2022-12-31T09:27:12;4.78;;;3.10;;
47309;SDS011;33046;52.270;6.832;2022-12-31T09:29:41;3.60;;;3.13;;
47309;SDS011;33046;52.270;6.832;2022-12-31T09:31:56;9.57;;;5.40;;
47309;SDS011;33046;52.270;6.832;2022-12-31T09:34:14;1.85;;;1.60;;
47309;SDS011;33046;52.270;6.832;2022-12-31T09:36:31;2.10;;;1.40;;
47309;SDS011;33046;52.270;6.832;2022-12-31T09:38:43;3.47;;;2.85;;
47309;SDS011;33046;52.270;6.832;2022-12-31T09:41:01;3.17;;;1.08;;
47309;SDS011;33046;52.270;6.832;2022-12-31T09:43:25;1.00;;;0.90;;
47309;SDS011;33046;52.270;6.832;2022-12-31T09:46:08;2.88;;;1.60;;
47309;SDS011;33046;52.270;6.832;2022-12-31T09:51:13;0.63;;;0.50;;
47309;SDS011;33046;52.270;6.832;2022-12-31T09:56:35;0.68;;;0.55;;
47309;SDS011;33046;52.270;6.832;2022-12-31T09:58:50;2.00;;;0.80;;
47309;SDS011;33046;52.270;6.832;2022-12-31T10:01:10;2.10;;;1.00;;
47309;SDS011;33046;52.270;6.832;2022-12-31T10:03:29;2.60;;;1.55;;
47309;SDS011;33046;52.270;6.832;2022-12-31T10:05:49;3.17;;;1.00;;
47309;SDS011;33046;52.270;6.832;2022-12-31T10:08:06;2.13;;;1.50;;
47309;SDS011;33046;52.270;6.832;2022-12-31T10:10:23;3.72;;;1.67;;
47309;SDS011;33046;52.270;6.832;2022-12-31T10:12:49;3.42;;;2.50;;
47309;SDS011;33046;52.270;6.832;2022-12-31T10:15:27;4.30;;;2.50;;
47309;SDS011;33046;52.270;6.832;2022-12-31T10:17:52;6.15;;;5.65;;
47309;SDS011;33046;52.270;6.832;2022-12-31T10:20:15;4.28;;;3.88;;
47309;SDS011;33046;52.270;6.832;2022-12-31T10:25:32;5.07;;;3.70;;
47309;SDS011;33046;52.270;6.832;2022-12-31T10:27:52;12.82;;;11.68;;
47309;SDS011;33046;52.270;6.832;2022-12-31T10:30:10;30.33;;;26.90;;
47309;SDS011;33046;52.270;6.832;2022-12-31T10:32:20;24.27;;;21.67;;
47309;SDS011;33046;52.270;6.832;2022-12-31T10:34:43;23.17;;;20.80;;
47309;SDS011;33046;52.270;6.832;2022-12-31T10:37:01;23.25;;;20.55;;
47309;SDS011;33046;52.270;6.832;2022-12-31T10:39:14;48.65;;;31.52;;
47309;SDS011;33046;52.270;6.832;2022-12-31T10:41:41;194.73;;;107.53;;
47309;SDS011;33046;52.270;6.832;2022-12-31T10:44:23;109.35;;;66.38;;
47309;SDS011;33046;52.270;6.832;2022-12-31T10:52:18;19.67;;;17.60;;
47309;SDS011;33046;52.270;6.832;2022-12-31T11:00:18;27.70;;;24.70;;
47309;SDS011;33046;52.270;6.832;2022-12-31T11:02:32;13.80;;;12.40;;
47309;SDS011;33046;52.270;6.832;2022-12-31T11:05:05;13.57;;;9.38;;
47309;SDS011;33046;52.270;6.832;2022-12-31T11:07:37;21.85;;;19.80;;
47309;SDS011;33046;52.270;6.832;2022-12-31T11:10:00;33.58;;;30.55;;
47309;SDS011;33046;52.270;6.832;2022-12-31T11:12:34;18.95;;;17.08;;
47309;SDS011;33046;52.270;6.832;2022-12-31T11:14:59;20.30;;;18.58;;
47309;SDS011;33046;52.270;6.832;2022-12-31T11:19:51;6.63;;;5.90;;
47309;SDS011;33046;52.270;6.832;2022-12-31T11:22:14;8.40;;;7.57;;
47309;SDS011;33046;52.270;6.832;2022-12-31T11:26:49;21.85;;;19.10;;
47309;SDS011;33046;52.270;6.832;2022-12-31T11:29:14;22.40;;;19.05;;
47309;SDS011;33046;52.270;6.832;2022-12-31T11:31:43;188.07;;;170.27;;
47309;SDS011;33046;52.270;6.832;2022-12-31T11:34:07;91.15;;;82.72;;
47309;SDS011;33046;52.270;6.832;2022-12-31T11:36:32;41.22;;;37.30;;
47309;SDS011;33046;52.270;6.832;2022-12-31T11:38:49;17.20;;;15.63;;
47309;SDS011;33046;52.270;6.832;2022-12-31T11:40:59;16.38;;;14.73;;
47309;SDS011;33046;52.270;6.832;2022-12-31T11:43:15;40.35;;;36.30;;
47309;SDS011;33046;52.270;6.832;2022-12-31T11:45:39;37.45;;;33.85;;
47309;SDS011;33046;52.270;6.832;2022-12-31T11:48:01;23.65;;;21.20;;
47309;SDS011;33046;52.270;6.832;2022-12-31T11:50:40;13.20;;;11.75;;
47309;SDS011;33046;52.270;6.832;2022-12-31T11:53:01;13.80;;;11.85;;
47309;SDS011;33046;52.270;6.832;2022-12-31T11:57:45;29.92;;;26.15;;
47309;SDS011;33046;52.270;6.832;2022-12-31T11:59:55;43.95;;;39.72;;
47309;SDS011;33046;52.270;6.832;2022-12-31T12:02:09;28.88;;;25.90;;
47309;SDS011;33046;52.270;6.832;2022-12-31T12:04:30;12.93;;;10.25;;
47309;SDS011;33046;52.270;6.832;2022-12-31T12:06:39;14.82;;;13.45;;
47309;SDS011;33046;52.270;6.832;2022-12-31T12:08:46;19.08;;;17.30;;
47309;SDS011;33046;52.270;6.832;2022-12-31T12:10:55;56.97;;;52.17;;
47309;SDS011;33046;52.270;6.832;2022-12-31T12:13:10;28.45;;;25.75;;
47309;SDS011;33046;52.270;6.832;2022-12-31T12:15:21;17.70;;;15.73;;
47309;SDS011;33046;52.270;6.832;2022-12-31T12:17:29;9.43;;;7.63;;
47309;SDS011;33046;52.270;6.832;2022-12-31T12:19:40;10.75;;;6.90;;
47309;SDS011;33046;52.270;6.832;2022-12-31T12:21:50;10.35;;;5.53;;
47309;SDS011;33046;52.270;6.832;2022-12-31T12:23:58;12.50;;;8.23;;
47309;SDS011;33046;52.270;6.832;2022-12-31T12:26:06;31.45;;;28.65;;
47309;SDS011;33046;52.270;6.832;2022-12-31T12:28:41;12.13;;;10.75;;
47309;SDS011;33046;52.270;6.832;2022-12-31T12:30:54;10.10;;;8.80;;
47309;SDS011;33046;52.270;6.832;2022-12-31T12:33:03;15.40;;;10.82;;
47309;SDS011;33046;52.270;6.832;2022-12-31T12:35:14;6.32;;;4.53;;
47309;SDS011;33046;52.270;6.832;2022-12-31T12:37:26;33.78;;;31.00;;
47309;SDS011;33046;52.270;6.832;2022-12-31T12:39:34;5.53;;;3.58;;
47309;SDS011;33046;52.270;6.832;2022-12-31T12:41:41;4.35;;;3.10;;
47309;SDS011;33046;52.270;6.832;2022-12-31T12:43:48;17.00;;;15.43;;
47309;SDS011;33046;52.270;6.832;2022-12-31T12:45:55;7.90;;;6.68;;
47309;SDS011;33046;52.270;6.832;2022-12-31T12:48:06;7.85;;;4.28;;
47309;SDS011;33046;52.270;6.832;2022-12-31T12:50:22;7.88;;;4.22;;
47309;SDS011;33046;52.270;6.832;2022-12-31T12:52:51;8.93;;;7.47;;
47309;SDS011;33046;52.270;6.832;2022-12-31T12:55:11;5.60;;;2.90;;
47309;SDS011;33046;52.270;6.832;2022-12-31T12:57:26;6.97;;;6.03;;
47309;SDS011;33046;52.270;6.832;2022-12-31T12:59:46;9.23;;;7.65;;
47309;SDS011;33046;52.270;6.832;2022-12-31T13:02:03;15.30;;;13.75;;
47309;SDS011;33046;52.270;6.832;2022-12-31T13:04:40;6.10;;;3.47;;
47309;SDS011;33046;52.270;6.832;2022-12-31T13:07:01;5.75;;;2.97;;
47309;SDS011;33046;52.270;6.832;2022-12-31T13:09:22;6.57;;;2.40;;
47309;SDS011;33046;52.270;6.832;2022-12-31T13:11:41;10.57;;;6.13;;
47309;SDS011;33046;52.270;6.832;2022-12-31T13:13:56;6.68;;;3.00;;
47309;SDS011;33046;52.270;6.832;2022-12-31T13:16:11;8.00;;;3.92;;
47309;SDS011;33046;52.270;6.832;2022-12-31T13:18:27;4.95;;;2.55;;
47309;SDS011;33046;52.270;6.832;2022-12-31T13:20:46;7.85;;;3.72;;
47309;SDS011;33046;52.270;6.832;2022-12-31T13:22:58;12.63;;;8.05;;
47309;SDS011;33046;52.270;6.832;2022-12-31T13:25:17;9.60;;;6.78;;
47309;SDS011;33046;52.270;6.832;2022-12-31T13:27:32;9.48;;;7.13;;
47309;SDS011;33046;52.270;6.832;2022-12-31T13:29:40;18.35;;;12.20;;
47309;SDS011;33046;52.270;6.832;2022-12-31T13:31:49;17.48;;;10.90;;
47309;SDS011;33046;52.270;6.832;2022-12-31T13:33:58;9.98;;;3.97;;
47309;SDS011;33046;52.270;6.832;2022-12-31T13:36:12;6.95;;;5.10;;
47309;SDS011;33046;52.270;6.832;2022-12-31T13:38:22;12.93;;;7.88;;
47309;SDS011;33046;52.270;6.832;2022-12-31T13:40:38;10.57;;;6.18;;
47309;SDS011;33046;52.270;6.832;2022-12-31T13:42:50;21.65;;;19.45;;
47309;SDS011;33046;52.270;6.832;2022-12-31T13:45:02;34.65;;;31.45;;